createdAt,value
2023-02-17T00:03:43.572Z,92.60
2023-02-17T00:08:07.578Z,92.60
2023-02-17T00:12:32.851Z,92.70
2023-02-17T00:16:56.742Z,92.80
2023-02-17T00:21:23.656Z,93.10
2023-02-17T00:25:47.579Z,93.40
2023-02-17T00:30:13.478Z,93.50
2023-02-17T00:34:37.673Z,93.80
2023-02-17T00:39:01.422Z,94.20
2023-02-17T00:43:25.312Z,94.70
2023-02-17T00:47:52.332Z,95.20
2023-02-17T00:52:16.308Z,95.70
2023-02-17T00:56:40.437Z,95.90
2023-02-17T01:01:04.618Z,95.80
2023-02-17T01:05:30.010Z,95.60
2023-02-17T01:09:54.027Z,95.20
2023-02-17T01:14:18.416Z,94.70
2023-02-17T01:18:42.687Z,94.60
2023-02-17T01:23:12.362Z,94.50
2023-02-17T01:27:36.928Z,94.70
2023-02-17T01:38:34.545Z,95.10
2023-02-17T01:42:58.500Z,95.00
2023-02-17T01:47:22.523Z,94.90
2023-02-17T01:51:49.540Z,94.70
2023-02-17T01:56:16.573Z,94.40
2023-02-17T02:00:41.479Z,94.00
2023-02-17T02:05:07.111Z,93.60
2023-02-17T02:09:36.588Z,93.30
2023-02-17T02:14:02.892Z,92.80
2023-02-17T02:18:43.166Z,92.50
2023-02-17T02:23:49.859Z,92.00
2023-02-17T02:28:28.201Z,91.50
2023-02-17T02:33:00.232Z,91.10
2023-02-17T02:37:29.176Z,90.90
2023-02-17T02:41:56.681Z,91.20
2023-02-17T02:46:21.851Z,91.50
2023-02-17T02:51:14.739Z,91.70
2023-02-17T02:55:46.274Z,91.90
2023-02-17T03:00:13.701Z,92.30
2023-02-17T03:04:36.462Z,93.20
2023-02-17T03:09:02.396Z,94.30
2023-02-17T03:13:21.127Z,95.40
2023-02-17T03:17:41.009Z,96.10
2023-02-17T03:22:05.341Z,96.50
2023-02-17T03:26:24.730Z,96.60
2023-02-17T03:30:44.443Z,96.50
2023-02-17T03:35:02.319Z,96.30
2023-02-17T03:39:26.256Z,96.00
2023-02-17T03:43:51.870Z,95.60
2023-02-17T03:48:15.650Z,95.20
2023-02-17T03:52:39.514Z,94.90
2023-02-17T03:57:03.649Z,94.60
2023-02-17T04:01:29.016Z,94.50
2023-02-17T04:05:54.555Z,94.30
2023-02-17T04:10:18.851Z,94.20
2023-02-17T04:14:42.685Z,94.10
2023-02-17T04:19:08.461Z,94.20
2023-02-17T04:23:32.532Z,94.20
2023-02-17T04:27:56.274Z,94.20
2023-02-17T04:32:20.141Z,94.40
2023-02-17T04:36:45.475Z,94.60
2023-02-17T04:41:09.392Z,94.80
2023-02-17T04:45:33.394Z,95.00
2023-02-17T04:49:57.351Z,95.20
2023-02-17T04:54:23.327Z,95.30
2023-02-17T04:58:47.342Z,95.40
2023-02-17T05:03:11.345Z,95.40
2023-02-17T05:07:35.204Z,95.40
2023-02-17T05:12:03.044Z,95.40
2023-02-17T05:16:27.095Z,95.40
2023-02-17T05:20:51.305Z,95.30
2023-02-17T05:25:15.485Z,95.20
2023-02-17T05:29:40.908Z,95.10
2023-02-17T05:34:04.830Z,94.90
2023-02-17T05:38:28.790Z,94.80
2023-02-17T05:42:52.816Z,94.80
2023-02-17T05:47:18.056Z,94.60
2023-02-17T05:51:41.914Z,94.50
2023-02-17T05:56:06.459Z,94.50
2023-02-17T06:00:30.572Z,94.30
2023-02-17T06:04:55.964Z,94.30
2023-02-17T06:09:20.445Z,94.40
2023-02-17T06:13:44.271Z,94.50
2023-02-17T06:18:08.222Z,94.70
2023-02-17T06:22:33.552Z,94.90
2023-02-17T06:26:57.573Z,95.10
2023-02-17T06:31:21.373Z,95.30
2023-02-17T06:35:49.602Z,95.30
2023-02-17T06:40:16.072Z,95.40
2023-02-17T06:44:39.975Z,95.30
2023-02-17T06:49:03.787Z,95.30
2023-02-17T06:53:27.869Z,95.20
2023-02-17T06:57:53.252Z,95.10
2023-02-17T07:02:17.291Z,95.10
2023-02-17T07:06:41.932Z,95.10
2023-02-17T07:11:07.095Z,95.10
2023-02-17T07:15:32.428Z,95.40
2023-02-17T07:19:56.523Z,95.10
2023-02-17T07:24:20.443Z,95.20
2023-02-17T07:28:44.562Z,95.20
2023-02-17T07:33:10.084Z,95.20
2023-02-17T07:37:34.191Z,95.20
2023-02-17T07:42:01.072Z,95.10
2023-02-17T07:46:25.744Z,95.00
2023-02-17T07:50:50.953Z,94.80
2023-02-17T07:55:15.045Z,94.70
2023-02-17T07:59:39.257Z,94.60
2023-02-17T08:04:03.818Z,94.60
2023-02-17T08:08:47.175Z,94.60
2023-02-17T08:13:21.428Z,94.40
2023-02-17T08:17:45.716Z,94.30
2023-02-17T08:22:09.794Z,94.20
2023-02-17T08:26:35.197Z,94.10
2023-02-17T08:30:59.289Z,93.90
2023-02-17T08:35:26.574Z,94.00
2023-02-17T08:39:50.702Z,94.00
2023-02-17T08:44:18.773Z,94.00
2023-02-17T08:48:45.306Z,93.50
2023-02-17T08:53:09.517Z,93.10
2023-02-17T08:57:34.516Z,92.80
2023-02-17T09:02:00.322Z,92.40
2023-02-17T09:06:36.949Z,91.60
2023-02-17T09:11:01.301Z,91.40
2023-02-17T09:15:25.478Z,91.30
2023-02-17T09:19:50.803Z,91.40
2023-02-17T09:24:15.128Z,91.80
2023-02-17T09:28:39.962Z,92.10
2023-02-17T09:33:05.381Z,92.00
2023-02-17T09:37:30.940Z,91.80
2023-02-17T09:41:55.529Z,91.80
2023-02-17T09:46:24.402Z,91.40
2023-02-17T09:50:55.254Z,91.50
2023-02-17T09:55:26.382Z,91.30
2023-02-17T09:59:55.748Z,90.90
2023-02-17T10:04:24.338Z,90.50
2023-02-17T10:08:53.742Z,90.00
2023-02-17T10:13:21.346Z,89.70
2023-02-17T10:17:51.986Z,89.20
2023-02-17T10:22:19.387Z,89.30
2023-02-17T10:27:00.060Z,90.20
2023-02-17T10:31:44.277Z,90.40
2023-02-17T10:36:20.120Z,90.80
2023-02-17T10:40:48.195Z,91.50
2023-02-17T10:45:22.066Z,92.10
2023-02-17T10:49:51.423Z,92.40
2023-02-17T10:54:25.885Z,92.50
2023-02-17T10:58:56.117Z,92.10
2023-02-17T11:03:21.412Z,91.40
2023-02-17T11:07:47.929Z,90.70
2023-02-17T11:12:14.740Z,90.30
2023-02-17T11:16:41.539Z,89.30
2023-02-17T11:21:08.434Z,87.70
2023-02-17T11:25:35.660Z,86.40
2023-02-17T11:30:09.095Z,84.30
2023-02-17T11:34:38.027Z,83.50
2023-02-17T11:39:20.600Z,83.00
2023-02-17T11:43:56.416Z,82.80
2023-02-17T11:48:41.280Z,83.30
2023-02-17T11:53:27.374Z,83.80
2023-02-17T11:58:11.230Z,85.00
2023-02-17T12:03:03.706Z,85.70
2023-02-17T12:07:54.094Z,85.00
2023-02-17T12:12:25.431Z,84.20
2023-02-17T12:17:00.554Z,83.60
2023-02-17T12:21:49.382Z,83.10
2023-02-17T12:26:20.952Z,83.30
2023-02-17T12:30:57.982Z,83.50
2023-02-17T12:35:25.440Z,83.70
2023-02-17T12:39:59.120Z,83.30
2023-02-17T12:44:28.395Z,83.20
2023-02-17T12:48:59.898Z,83.40
2023-02-17T12:53:41.873Z,83.50
2023-02-17T12:58:13.162Z,84.10
2023-02-17T13:02:37.505Z,84.20
2023-02-17T13:07:09.505Z,83.90
2023-02-17T13:11:36.028Z,84.00
2023-02-17T13:16:11.225Z,84.40
2023-02-17T13:20:56.985Z,84.50
2023-02-17T13:25:36.308Z,84.20
2023-02-17T13:30:04.728Z,84.40
2023-02-17T13:34:33.879Z,84.30
2023-02-17T13:39:01.722Z,84.00
2023-02-17T13:43:25.730Z,83.90
2023-02-17T13:47:51.695Z,84.10
2023-02-17T13:52:22.834Z,84.00
2023-02-17T13:56:52.508Z,83.90
2023-02-17T14:01:18.444Z,83.70
2023-02-17T14:05:45.774Z,83.30
2023-02-17T14:10:23.149Z,82.80
2023-02-17T14:14:47.278Z,82.50
2023-02-17T14:19:13.346Z,82.20
2023-02-17T14:23:48.897Z,82.00
2023-02-17T14:28:22.041Z,81.70
2023-02-17T14:32:45.860Z,81.50
2023-02-17T14:37:12.110Z,81.30
2023-02-17T14:41:36.066Z,80.90
2023-02-17T14:46:01.388Z,80.50
2023-02-17T14:50:25.538Z,79.90
2023-02-17T14:54:49.444Z,79.40
2023-02-17T14:59:13.432Z,79.20
2023-02-17T15:03:38.796Z,78.80
2023-02-17T15:08:03.198Z,78.50
2023-02-17T15:12:28.293Z,78.20
2023-02-17T15:16:52.282Z,78.20
2023-02-17T15:21:26.125Z,78.10
2023-02-17T15:25:50.847Z,78.40
2023-02-17T15:30:17.471Z,78.60
2023-02-17T15:34:41.518Z,78.80
2023-02-17T15:39:07.244Z,78.90
2023-02-17T15:48:06.304Z,79.30
2023-02-17T15:52:30.233Z,79.40
2023-02-17T15:56:56.669Z,79.30
2023-02-17T16:01:28.381Z,79.20
2023-02-17T16:05:53.521Z,79.20
2023-02-17T16:10:19.585Z,78.80
2023-02-17T16:14:46.338Z,78.70
2023-02-17T16:19:13.355Z,78.80
2023-02-17T16:23:37.196Z,79.00
2023-02-17T16:28:01.244Z,79.30
2023-02-17T16:32:27.125Z,79.80
2023-02-17T16:36:53.564Z,80.10
2023-02-17T16:41:18.591Z,80.30
2023-02-17T16:45:53.105Z,80.60
2023-02-17T16:50:36.875Z,81.20
2023-02-17T16:55:00.987Z,82.50
2023-02-17T16:59:26.998Z,84.90
2023-02-17T17:03:50.902Z,89.20
2023-02-17T17:08:20.575Z,92.20
2023-02-17T17:12:46.365Z,94.60
2023-02-17T17:17:12.432Z,96.80
2023-02-17T17:21:36.233Z,98.50
2023-02-17T17:26:01.852Z,99.90
2023-02-17T17:30:29.048Z,99.90
2023-02-17T17:34:53.088Z,99.90
2023-02-17T17:39:18.993Z,99.90
2023-02-17T17:43:45.677Z,99.90
2023-02-17T17:48:13.387Z,99.90
2023-02-17T17:52:37.232Z,99.90
2023-02-17T17:57:01.156Z,99.90
2023-02-17T18:01:26.509Z,99.90
2023-02-17T18:05:50.650Z,99.90
2023-02-17T18:10:15.470Z,99.90
2023-02-17T18:14:45.183Z,99.90
2023-02-17T18:19:10.476Z,99.90
2023-02-17T18:23:37.437Z,99.90
2023-02-17T18:28:01.349Z,99.90
2023-02-17T18:32:25.231Z,99.90
2023-02-17T18:36:50.478Z,99.90
2023-02-17T18:41:19.192Z,99.90
2023-02-17T18:45:42.975Z,99.90
2023-02-17T18:50:08.730Z,99.90
2023-02-17T19:10:54.096Z,96.40
2023-02-17T19:15:20.931Z,95.20
2023-02-17T19:19:45.003Z,94.50
2023-02-17T19:24:09.548Z,94.20
2023-02-17T19:28:36.425Z,94.10
2023-02-17T19:33:00.390Z,93.80
2023-02-17T19:37:25.222Z,93.70
2023-02-17T19:41:49.319Z,93.80
2023-02-17T19:46:15.689Z,94.20
2023-02-17T19:50:39.985Z,94.40
2023-02-17T19:54:59.744Z,94.60
2023-02-17T19:59:16.919Z,94.70
2023-02-17T20:03:36.916Z,94.80
2023-02-17T20:07:57.307Z,94.50
2023-02-17T20:12:17.641Z,94.10
2023-02-17T20:16:35.343Z,93.20
2023-02-17T20:20:55.243Z,92.00
2023-02-17T20:25:14.343Z,90.60
2023-02-17T20:29:34.104Z,89.30
2023-02-17T20:33:53.871Z,86.80
2023-02-17T20:38:13.291Z,84.50
2023-02-17T20:42:32.776Z,83.10
2023-02-17T20:46:57.333Z,84.30
2023-02-17T20:51:21.516Z,86.60
2023-02-17T20:55:47.459Z,89.00
2023-02-17T21:00:16.836Z,90.60
2023-02-17T21:04:40.949Z,91.70
2023-02-17T21:09:07.764Z,93.00
2023-02-17T21:13:33.186Z,94.00
2023-02-17T21:17:57.026Z,94.90
2023-02-17T21:22:20.966Z,95.60
2023-02-17T21:26:44.938Z,96.40
2023-02-17T21:31:10.888Z,97.30
2023-02-17T21:35:34.926Z,98.30
2023-02-17T21:39:59.146Z,99.10
2023-02-17T21:44:40.323Z,99.60
2023-02-17T21:49:05.907Z,99.60
2023-02-17T21:53:29.913Z,99.20
2023-02-17T21:57:54.318Z,98.50
2023-02-17T22:02:18.222Z,97.70
2023-02-17T22:06:43.897Z,96.90
2023-02-17T22:11:07.904Z,96.00
2023-02-17T22:15:26.390Z,95.30
2023-02-17T22:19:50.283Z,94.60
2023-02-17T22:24:16.371Z,94.00
2023-02-17T22:28:40.804Z,93.30
2023-02-17T22:33:04.964Z,92.90
2023-02-17T22:37:28.801Z,92.80
2023-02-17T22:41:54.997Z,92.70
2023-02-17T22:46:21.761Z,92.70
2023-02-17T22:50:45.866Z,92.90
2023-02-17T22:55:09.749Z,93.10
2023-02-17T22:59:34.998Z,93.40
2023-02-17T23:03:59.355Z,93.70
2023-02-17T23:08:23.423Z,93.90
2023-02-17T23:12:47.419Z,94.10
2023-02-17T23:17:14.898Z,94.30
2023-02-17T23:21:43.210Z,94.50
2023-02-17T23:26:07.766Z,94.60
2023-02-17T23:30:31.983Z,94.70
2023-02-17T23:34:57.356Z,94.80
2023-02-17T23:39:21.236Z,94.80
2023-02-17T23:43:45.058Z,94.60
2023-02-17T23:48:09.045Z,94.30
2023-02-17T23:52:35.474Z,94.10
2023-02-17T23:56:59.505Z,93.60
